createdAt,value
2023-02-17T00:01:23.709Z,101481.19
2023-02-17T00:03:51.898Z,101481.73
2023-02-17T00:06:21.721Z,101480.85
2023-02-17T00:08:50.389Z,101479.69
2023-02-17T00:11:18.677Z,101475.90
2023-02-17T00:13:46.771Z,101477.99
2023-02-17T00:16:20.200Z,101471.52
2023-02-17T00:18:51.965Z,101473.25
2023-02-17T00:21:22.631Z,101470.09
2023-02-17T00:23:51.312Z,101467.00
2023-02-17T00:26:19.414Z,101468.56
2023-02-17T00:28:47.716Z,101467.63
2023-02-17T00:31:22.769Z,101465.80
2023-02-17T00:33:50.810Z,101466.80
2023-02-17T00:36:19.451Z,101465.82
2023-02-17T00:38:48.203Z,101464.49
2023-02-17T00:41:17.022Z,101462.85
2023-02-17T00:43:45.337Z,101460.05
2023-02-17T00:46:13.428Z,101458.80
2023-02-17T00:48:41.504Z,101455.13
2023-02-17T00:51:09.840Z,101453.36
2023-02-17T00:53:38.016Z,101446.23
2023-02-17T00:56:08.465Z,101441.71
2023-02-17T00:58:36.522Z,101441.18
2023-02-17T01:01:04.732Z,101434.23
2023-02-17T01:03:32.858Z,101435.91
2023-02-17T01:06:05.816Z,101435.14
2023-02-17T01:08:34.834Z,101435.09
2023-02-17T01:11:02.958Z,101434.09
2023-02-17T01:13:33.199Z,101430.48
2023-02-17T01:16:01.345Z,101428.13
2023-02-17T01:18:29.376Z,101424.33
2023-02-17T01:20:57.629Z,101414.36
2023-02-17T01:23:25.962Z,101403.39
2023-02-17T01:25:54.122Z,101397.66
2023-02-17T01:28:23.661Z,101391.60
2023-02-17T01:30:51.661Z,101387.77
2023-02-17T01:33:19.766Z,101382.25
2023-02-17T01:35:47.923Z,101379.33
2023-02-17T01:38:17.046Z,101371.00
2023-02-17T01:40:48.194Z,101366.88
2023-02-17T01:43:17.239Z,101362.89
2023-02-17T01:45:52.893Z,101365.73
2023-02-17T01:48:24.149Z,101364.17
2023-02-17T01:51:03.680Z,101362.36
2023-02-17T01:53:41.353Z,101363.73
2023-02-17T01:56:11.054Z,101357.77
2023-02-17T01:58:40.202Z,101351.36
2023-02-17T02:01:08.153Z,101349.63
2023-02-17T02:03:37.077Z,101346.89
2023-02-17T02:06:17.121Z,101345.60
2023-02-17T02:09:11.897Z,101341.39
2023-02-17T02:11:39.871Z,101338.48
2023-02-17T02:14:08.531Z,101328.95
2023-02-17T02:16:41.285Z,101326.93
2023-02-17T02:19:12.234Z,101320.57
2023-02-17T02:22:27.964Z,101314.35
2023-02-17T02:25:25.728Z,101321.36
2023-02-17T02:28:02.554Z,101319.61
2023-02-17T02:30:45.574Z,101316.33
2023-02-17T02:33:30.498Z,101316.28
2023-02-17T02:36:19.714Z,101311.20
2023-02-17T02:39:03.302Z,101312.25
2023-02-17T02:41:50.539Z,101313.36
2023-02-17T02:44:19.539Z,101311.90
2023-02-17T02:47:26.653Z,101306.30
2023-02-17T02:49:54.915Z,101308.20
2023-02-17T02:52:30.397Z,101305.75
2023-02-17T02:55:30.906Z,101304.30
2023-02-17T02:58:17.204Z,101296.59
2023-02-17T03:00:56.327Z,101295.31
2023-02-17T03:03:49.370Z,101292.42
2023-02-17T03:06:30.028Z,101286.79
2023-02-17T03:09:01.911Z,101284.88
2023-02-17T03:11:32.819Z,101287.62
2023-02-17T03:14:05.830Z,101289.67
2023-02-17T03:16:34.950Z,101287.95
2023-02-17T03:19:03.260Z,101285.17
2023-02-17T03:21:42.832Z,101278.83
2023-02-17T03:24:10.979Z,101274.89
2023-02-17T03:26:38.984Z,101270.88
2023-02-17T03:29:08.514Z,101266.79
2023-02-17T03:31:36.746Z,101267.96
2023-02-17T03:34:05.105Z,101266.57
2023-02-17T03:36:33.420Z,101258.75
2023-02-17T03:39:01.495Z,101260.30
2023-02-17T03:41:29.469Z,101256.86
2023-02-17T03:43:57.529Z,101259.06
2023-02-17T03:46:25.495Z,101258.58
2023-02-17T03:48:53.564Z,101258.77
2023-02-17T03:51:22.721Z,101259.27
2023-02-17T03:53:50.911Z,101258.83
2023-02-17T03:56:19.062Z,101249.80
2023-02-17T03:58:47.096Z,101249.08
2023-02-17T04:01:15.416Z,101240.08
2023-02-17T04:03:43.564Z,101232.41
2023-02-17T04:06:11.818Z,101225.21
2023-02-17T04:08:39.971Z,101224.45
2023-02-17T04:11:08.706Z,101221.27
2023-02-17T04:13:37.002Z,101218.82
2023-02-17T04:16:06.179Z,101216.27
2023-02-17T04:18:34.540Z,101214.95
2023-02-17T04:21:02.898Z,101212.74
2023-02-17T04:23:31.005Z,101214.52
2023-02-17T04:25:59.214Z,101207.55
2023-02-17T04:28:27.532Z,101203.20
2023-02-17T04:30:57.993Z,101201.16
2023-02-17T04:33:26.353Z,101199.69
2023-02-17T04:35:59.793Z,101203.13
2023-02-17T04:38:28.894Z,101195.89
2023-02-17T04:40:57.732Z,101195.96
2023-02-17T04:43:26.240Z,101192.51
2023-02-17T04:45:54.437Z,101194.33
2023-02-17T04:48:22.552Z,101193.38
2023-02-17T04:50:50.754Z,101192.10
2023-02-17T04:53:19.053Z,101193.99
2023-02-17T04:55:53.571Z,101192.95
2023-02-17T04:58:21.737Z,101187.95
2023-02-17T05:00:50.115Z,101182.54
2023-02-17T05:03:18.878Z,101185.33
2023-02-17T05:05:47.003Z,101183.67
2023-02-17T05:08:15.177Z,101181.85
2023-02-17T05:10:43.164Z,101184.11
2023-02-17T05:13:11.624Z,101183.24
2023-02-17T05:15:39.732Z,101184.45
2023-02-17T05:18:07.869Z,101178.71
2023-02-17T05:20:35.905Z,101178.71
2023-02-17T05:23:04.073Z,101176.52
2023-02-17T05:25:32.065Z,101175.15
2023-02-17T05:28:00.156Z,101173.54
2023-02-17T05:30:28.428Z,101172.38
2023-02-17T05:32:57.131Z,101171.91
2023-02-17T05:35:28.587Z,101173.33
2023-02-17T05:37:57.194Z,101169.48
2023-02-17T05:40:25.599Z,101164.96
2023-02-17T05:42:55.729Z,101161.23
2023-02-17T05:45:24.605Z,101162.32
2023-02-17T05:47:52.802Z,101156.73
2023-02-17T05:50:23.538Z,101163.80
2023-02-17T05:52:51.915Z,101159.52
2023-02-17T05:55:23.650Z,101158.23
2023-02-17T05:57:52.440Z,101157.27
2023-02-17T06:00:21.772Z,101155.18
2023-02-17T06:06:05.210Z,101160.77
2023-02-17T06:08:54.605Z,101160.37
2023-02-17T06:11:26.660Z,101155.73
2023-02-17T06:16:39.022Z,101149.36
2023-02-17T06:19:12.856Z,101146.20
2023-02-17T06:21:50.788Z,101138.82
2023-02-17T06:24:19.396Z,101134.61
2023-02-17T06:26:47.875Z,101136.31
2023-02-17T06:29:16.558Z,101134.85
2023-02-17T06:31:45.447Z,101132.84
2023-02-17T06:34:13.767Z,101133.48
2023-02-17T06:36:41.931Z,101135.00
2023-02-17T06:39:10.192Z,101134.88
2023-02-17T06:41:38.342Z,101132.23
2023-02-17T06:44:06.313Z,101124.23
2023-02-17T06:46:34.284Z,101121.60
2023-02-17T06:49:02.298Z,101118.85
2023-02-17T06:51:30.303Z,101118.57
2023-02-17T06:53:58.228Z,101121.09
2023-02-17T06:56:26.229Z,101120.21
2023-02-17T06:58:54.144Z,101125.55
2023-02-17T07:01:24.178Z,101129.92
2023-02-17T07:03:54.465Z,101123.64
2023-02-17T07:06:23.600Z,101123.01
2023-02-17T07:08:51.682Z,101123.70
2023-02-17T07:11:19.845Z,101125.68
2023-02-17T07:13:47.979Z,101124.66
2023-02-17T07:16:16.163Z,101118.86
2023-02-17T07:18:44.347Z,101117.23
2023-02-17T07:21:12.530Z,101115.54
2023-02-17T07:23:40.560Z,101115.95
2023-02-17T07:26:10.288Z,101108.10
2023-02-17T07:28:38.740Z,101112.33
2023-02-17T07:31:12.052Z,101113.86
2023-02-17T07:33:40.470Z,101114.36
2023-02-17T07:36:15.516Z,101119.28
2023-02-17T07:38:45.492Z,101121.83
2023-02-17T07:41:15.304Z,101121.17
2023-02-17T07:43:43.509Z,101115.96
2023-02-17T07:46:12.020Z,101113.96
2023-02-17T07:48:40.101Z,101115.51
2023-02-17T07:51:16.037Z,101108.99
2023-02-17T07:53:44.047Z,101099.06
2023-02-17T07:56:13.155Z,101091.84
2023-02-17T07:58:41.827Z,101091.04
2023-02-17T08:01:20.768Z,101084.20
2023-02-17T08:03:49.361Z,101086.75
2023-02-17T08:06:22.424Z,101087.77
2023-02-17T08:09:10.064Z,101085.39
2023-02-17T08:11:56.548Z,101076.42
2023-02-17T08:14:26.467Z,101070.26
2023-02-17T08:16:54.950Z,101070.52
2023-02-17T08:19:23.150Z,101062.52
2023-02-17T08:21:51.103Z,101054.74
2023-02-17T08:24:19.983Z,101053.09
2023-02-17T08:26:49.305Z,101047.13
2023-02-17T08:29:17.849Z,101042.91
2023-02-17T08:34:47.099Z,101035.95
2023-02-17T08:37:22.042Z,101032.69
2023-02-17T08:40:09.328Z,101031.45
2023-02-17T08:42:39.135Z,101033.82
2023-02-17T08:45:07.593Z,101032.54
2023-02-17T08:47:35.956Z,101029.76
2023-02-17T08:50:05.789Z,101027.83
2023-02-17T08:52:34.906Z,101030.04
2023-02-17T08:55:03.183Z,101021.93
2023-02-17T08:57:31.411Z,101020.21
2023-02-17T08:59:59.516Z,101016.08
2023-02-17T09:02:27.600Z,101013.95
2023-02-17T09:04:56.241Z,101015.45
2023-02-17T09:07:24.800Z,101016.98
2023-02-17T09:09:53.035Z,101011.48
2023-02-17T09:12:21.621Z,101008.23
2023-02-17T09:14:49.655Z,100998.17
2023-02-17T09:17:17.748Z,100997.39
2023-02-17T09:19:46.076Z,100994.39
2023-02-17T09:22:29.776Z,100988.98
2023-02-17T09:24:59.652Z,100990.42
2023-02-17T09:27:28.125Z,100982.65
2023-02-17T09:29:56.514Z,100983.84
2023-02-17T09:32:25.140Z,100978.81
2023-02-17T09:35:02.957Z,100970.64
2023-02-17T09:37:31.004Z,100965.89
2023-02-17T09:39:58.992Z,100965.31
2023-02-17T09:42:28.114Z,100965.55
2023-02-17T09:45:00.022Z,100956.02
2023-02-17T09:47:46.192Z,100954.96
2023-02-17T09:50:35.015Z,100952.95
2023-02-17T09:53:07.083Z,100946.80
2023-02-17T09:55:39.285Z,100938.98
2023-02-17T09:58:09.774Z,100945.19
2023-02-17T10:00:42.679Z,100938.49
2023-02-17T10:03:35.856Z,100928.88
2023-02-17T10:06:10.167Z,100926.73
2023-02-17T10:08:48.582Z,100924.38
2023-02-17T10:11:29.606Z,100916.83
2023-02-17T10:14:03.087Z,100911.20
2023-02-17T10:16:35.127Z,100903.72
2023-02-17T10:19:22.071Z,100894.21
2023-02-17T10:22:07.579Z,100896.08
2023-02-17T10:24:35.706Z,100893.09
2023-02-17T10:27:14.034Z,100895.15
2023-02-17T10:29:46.237Z,100883.56
2023-02-17T10:32:20.645Z,100881.23
2023-02-17T10:34:57.249Z,100870.55
2023-02-17T10:37:31.106Z,100858.09
2023-02-17T10:39:59.384Z,100844.40
2023-02-17T10:42:31.764Z,100833.02
2023-02-17T10:45:30.849Z,100827.69
2023-02-17T10:48:09.685Z,100832.59
2023-02-17T10:50:38.239Z,100828.07
2023-02-17T10:53:28.806Z,100820.55
2023-02-17T10:56:04.478Z,100805.80
2023-02-17T10:58:55.138Z,100798.91
2023-02-17T11:01:23.482Z,100785.30
2023-02-17T11:04:13.442Z,100779.83
2023-02-17T11:06:49.700Z,100776.38
2023-02-17T11:09:21.852Z,100773.06
2023-02-17T11:11:57.633Z,100767.55
2023-02-17T11:14:33.273Z,100763.32
2023-02-17T11:17:13.126Z,100765.54
2023-02-17T11:19:41.193Z,100750.77
2023-02-17T11:22:41.071Z,100738.83
2023-02-17T11:25:29.113Z,100734.30
2023-02-17T11:27:58.529Z,100727.37
2023-02-17T11:30:27.826Z,100732.10
2023-02-17T11:32:56.136Z,100724.29
2023-02-17T11:35:26.155Z,100717.38
2023-02-17T11:38:02.023Z,100701.38
2023-02-17T11:40:31.422Z,100704.13
2023-02-17T11:43:00.311Z,100699.98
2023-02-17T11:45:32.204Z,100695.79
2023-02-17T11:48:20.283Z,100685.52
2023-02-17T11:50:53.991Z,100679.97
2023-02-17T11:53:30.963Z,100671.42
2023-02-17T11:56:17.994Z,100677.15
2023-02-17T11:59:08.547Z,100668.81
2023-02-17T12:01:48.877Z,100654.77
2023-02-17T12:04:30.234Z,100651.15
2023-02-17T12:07:13.929Z,100637.23
2023-02-17T12:10:05.817Z,100638.34
2023-02-17T12:13:15.426Z,100632.91
2023-02-17T12:16:10.853Z,100630.05
2023-02-17T12:18:47.596Z,100618.88
2023-02-17T12:21:53.919Z,100617.98
2023-02-17T12:24:52.448Z,100605.94
2023-02-17T12:27:56.990Z,100597.67
2023-02-17T12:30:37.191Z,100582.05
2023-02-17T12:33:26.822Z,100577.63
2023-02-17T12:35:56.861Z,100568.48
2023-02-17T12:38:26.804Z,100563.05
2023-02-17T12:41:21.340Z,100561.85
2023-02-17T12:44:00.269Z,100550.48
2023-02-17T12:46:39.778Z,100543.91
2023-02-17T12:49:20.540Z,100540.39
2023-02-17T12:51:53.923Z,100538.64
2023-02-17T12:54:29.175Z,100535.22
2023-02-17T12:57:05.792Z,100531.64
2023-02-17T12:59:34.718Z,100522.30
2023-02-17T13:02:07.037Z,100521.11
2023-02-17T13:04:35.211Z,100514.36
2023-02-17T13:07:12.480Z,100509.30
2023-02-17T13:09:41.324Z,100505.79
2023-02-17T13:12:24.631Z,100504.23
2023-02-17T13:14:52.720Z,100495.02
2023-02-17T13:17:25.507Z,100489.71
2023-02-17T13:20:23.801Z,100480.95
2023-02-17T13:23:03.536Z,100470.98
2023-02-17T13:25:34.480Z,100462.34
2023-02-17T13:28:15.913Z,100454.21
2023-02-17T13:30:45.309Z,100445.88
2023-02-17T13:33:22.240Z,100433.54
2023-02-17T13:35:50.214Z,100426.14
2023-02-17T13:38:31.181Z,100418.22
2023-02-17T13:41:04.572Z,100413.52
2023-02-17T13:43:40.714Z,100409.74
2023-02-17T13:46:20.505Z,100395.70
2023-02-17T13:49:04.852Z,100386.60
2023-02-17T13:51:33.843Z,100378.02
2023-02-17T13:54:06.575Z,100364.98
2023-02-17T13:56:34.881Z,100353.16
2023-02-17T13:59:07.954Z,100345.05
2023-02-17T14:01:37.748Z,100339.95
2023-02-17T14:04:16.087Z,100335.08
2023-02-17T14:06:44.197Z,100333.70
2023-02-17T14:09:24.589Z,100324.19
2023-02-17T14:11:52.760Z,100311.80
2023-02-17T14:14:22.591Z,100303.84
2023-02-17T14:16:58.928Z,100299.98
2023-02-17T14:19:26.936Z,100299.27
2023-02-17T14:22:03.078Z,100286.83
2023-02-17T14:24:33.102Z,100280.70
2023-02-17T14:27:08.307Z,100268.41
2023-02-17T14:29:49.572Z,100263.62
2023-02-17T14:32:33.204Z,100259.95
2023-02-17T14:35:13.601Z,100258.20
2023-02-17T14:37:42.600Z,100253.99
2023-02-17T14:40:23.443Z,100254.38
2023-02-17T14:42:51.596Z,100251.58
2023-02-17T14:45:19.890Z,100247.31
2023-02-17T14:47:48.437Z,100244.29
2023-02-17T14:50:17.579Z,100234.09
2023-02-17T14:52:47.309Z,100235.67
2023-02-17T14:55:36.377Z,100233.19
2023-02-17T14:58:04.973Z,100224.88
2023-02-17T15:00:32.921Z,100220.80
2023-02-17T15:03:00.941Z,100218.52
2023-02-17T15:05:29.844Z,100217.20
2023-02-17T15:08:00.000Z,100214.60
2023-02-17T15:10:28.669Z,100205.74
2023-02-17T15:12:56.863Z,100197.27
2023-02-17T15:15:24.897Z,100196.82
2023-02-17T15:17:52.968Z,100190.34
2023-02-17T15:20:21.036Z,100179.41
2023-02-17T15:22:52.887Z,100178.30
2023-02-17T15:25:24.295Z,100168.41
2023-02-17T15:27:52.612Z,100165.73
2023-02-17T15:30:21.273Z,100160.36
2023-02-17T15:32:49.362Z,100158.23
2023-02-17T15:35:22.110Z,100145.27
2023-02-17T15:37:50.448Z,100136.33
2023-02-17T15:40:24.086Z,100128.56
2023-02-17T15:43:01.560Z,100124.39
2023-02-17T15:45:30.158Z,100124.34
2023-02-17T15:48:06.566Z,100123.41
2023-02-17T15:50:35.099Z,100117.96
2023-02-17T15:53:03.070Z,100110.65
2023-02-17T15:55:31.248Z,100108.61
2023-02-17T15:57:59.768Z,100104.52
2023-02-17T16:00:29.065Z,100101.59
2023-02-17T16:02:57.418Z,100098.90
2023-02-17T16:05:27.314Z,100094.64
2023-02-17T16:07:55.344Z,100092.92
2023-02-17T16:10:24.712Z,100094.86
2023-02-17T16:12:52.709Z,100096.45
2023-02-17T16:15:24.949Z,100097.81
2023-02-17T16:17:52.955Z,100092.86
2023-02-17T16:20:26.794Z,100089.70
2023-02-17T16:22:54.923Z,100087.27
2023-02-17T16:25:23.254Z,100085.91
2023-02-17T16:27:51.915Z,100080.41
2023-02-17T16:30:21.696Z,100077.01
2023-02-17T16:32:51.113Z,100072.21
2023-02-17T16:35:21.842Z,100064.83
2023-02-17T16:38:02.451Z,100058.61
2023-02-17T16:40:31.800Z,100052.50
2023-02-17T16:43:00.198Z,100048.71
2023-02-17T16:45:31.347Z,100047.27
2023-02-17T16:48:01.873Z,100050.30
2023-02-17T16:50:32.928Z,100047.32
2023-02-17T16:53:03.006Z,100044.04
2023-02-17T16:55:34.254Z,100036.27
2023-02-17T16:58:03.308Z,100035.55
2023-02-17T17:00:32.653Z,100038.23
2023-02-17T17:03:00.935Z,100031.96
2023-02-17T17:05:29.279Z,100028.95
2023-02-17T17:07:57.510Z,100028.61
2023-02-17T17:10:28.097Z,100017.36
2023-02-17T17:12:56.395Z,100013.90
2023-02-17T17:15:24.815Z,100010.73
2023-02-17T17:17:57.244Z,100001.81
2023-02-17T17:20:31.937Z,99993.44
2023-02-17T17:23:01.578Z,99999.12
2023-02-17T17:25:29.793Z,99995.42
2023-02-17T17:27:59.408Z,99991.63
2023-02-17T17:30:29.489Z,99994.35
2023-02-17T17:32:58.906Z,99991.50
2023-02-17T17:35:27.610Z,99982.90
2023-02-17T17:37:57.434Z,99989.54
2023-02-17T17:40:27.658Z,99987.06
2023-02-17T17:42:56.212Z,99978.86
2023-02-17T17:45:24.453Z,99974.52
2023-02-17T17:47:52.437Z,99966.88
2023-02-17T17:50:25.560Z,99964.77
2023-02-17T17:52:53.574Z,99964.60
2023-02-17T17:55:22.687Z,99961.30
2023-02-17T17:57:50.675Z,99959.88
2023-02-17T18:00:19.183Z,99965.21
2023-02-17T18:02:47.308Z,99961.44
2023-02-17T18:05:15.727Z,99960.81
2023-02-17T18:07:43.842Z,99954.39
2023-02-17T18:10:11.929Z,99943.10
2023-02-17T18:12:41.561Z,99938.23
2023-02-17T18:15:09.574Z,99926.45
2023-02-17T18:17:38.817Z,99930.77
2023-02-17T18:20:10.519Z,99932.88
2023-02-17T18:22:38.964Z,99934.46
2023-02-17T18:25:07.269Z,99924.09
2023-02-17T18:27:42.892Z,99924.66
2023-02-17T18:30:12.143Z,99918.98
2023-02-17T18:32:40.161Z,99919.73
2023-02-17T18:35:08.448Z,99915.69
2023-02-17T18:37:37.752Z,99911.10
2023-02-17T18:40:06.632Z,99913.42
2023-02-17T18:42:34.942Z,99915.20
2023-02-17T18:45:03.160Z,99914.96
2023-02-17T18:47:31.322Z,99911.73
2023-02-17T18:49:59.318Z,99912.70
2023-02-17T18:52:27.505Z,99915.45
2023-02-17T18:54:55.684Z,99926.14
2023-02-17T18:57:23.733Z,99937.39
2023-02-17T18:59:51.711Z,99956.34
2023-02-17T19:02:22.831Z,99957.19
2023-02-17T19:04:54.100Z,99952.09
2023-02-17T19:07:22.349Z,99960.77
2023-02-17T19:09:51.794Z,99971.09
2023-02-17T19:12:19.886Z,99970.22
2023-02-17T19:14:53.271Z,99984.68
2023-02-17T19:17:22.226Z,99982.12
2023-02-17T19:19:51.783Z,99981.27
2023-02-17T19:22:19.816Z,99956.94
2023-02-17T19:24:51.538Z,99962.55
2023-02-17T19:27:19.830Z,99956.48
2023-02-17T19:29:47.939Z,99956.97
2023-02-17T19:32:16.048Z,99962.84
2023-02-17T19:34:44.040Z,99979.73
2023-02-17T19:37:12.263Z,99989.59
2023-02-17T19:39:40.222Z,99993.23
2023-02-17T19:42:08.589Z,99992.20
2023-02-17T19:44:36.919Z,99999.95
2023-02-17T19:47:05.267Z,100001.52
2023-02-17T19:49:33.789Z,100006.22
2023-02-17T19:52:01.895Z,100023.80
2023-02-17T19:54:32.021Z,100021.30
2023-02-17T19:57:00.026Z,100018.23
2023-02-17T19:59:28.137Z,100020.88
2023-02-17T20:01:56.133Z,100030.20
2023-02-17T20:04:25.472Z,100033.23
2023-02-17T20:06:54.415Z,100036.41
2023-02-17T20:09:23.154Z,100032.77
2023-02-17T20:11:54.087Z,100034.77
2023-02-17T20:14:22.573Z,100033.35
2023-02-17T20:16:50.826Z,100038.45
2023-02-17T20:19:19.051Z,100038.95
2023-02-17T20:21:47.216Z,100038.31
2023-02-17T20:24:16.159Z,100038.95
2023-02-17T20:26:45.589Z,100036.04
2023-02-17T20:29:13.914Z,100033.98
2023-02-17T20:31:42.166Z,100032.50
2023-02-17T20:34:20.839Z,100032.72
2023-02-17T20:36:48.955Z,100036.95
2023-02-17T20:39:20.038Z,100039.04
2023-02-17T20:41:48.169Z,100032.42
2023-02-17T20:44:18.207Z,100030.46
2023-02-17T20:46:46.786Z,100035.45
2023-02-17T20:49:15.245Z,100037.98
2023-02-17T20:51:43.425Z,100036.05
2023-02-17T20:54:13.680Z,100045.00
2023-02-17T20:56:47.251Z,100039.27
2023-02-17T20:59:15.484Z,100038.04
2023-02-17T21:01:43.626Z,100035.80
2023-02-17T21:04:14.113Z,100042.58
2023-02-17T21:06:43.172Z,100037.14
2023-02-17T21:09:16.055Z,100047.52
2023-02-17T21:11:44.456Z,100052.20
2023-02-17T21:14:12.961Z,100050.25
2023-02-17T21:16:40.978Z,100062.95
2023-02-17T21:19:09.081Z,100064.23
2023-02-17T21:21:37.179Z,100066.77
2023-02-17T21:24:05.339Z,100068.92
2023-02-17T21:26:33.734Z,100083.16
2023-02-17T21:29:01.903Z,100076.66
2023-02-17T21:31:30.216Z,100086.19
2023-02-17T21:33:58.342Z,100091.63
2023-02-17T21:36:28.773Z,100086.44
2023-02-17T21:38:57.747Z,100090.15
2023-02-17T21:41:27.800Z,100089.07
2023-02-17T21:44:14.261Z,100089.20
2023-02-17T21:46:43.388Z,100088.92
2023-02-17T21:49:12.953Z,100087.27
2023-02-17T21:51:41.068Z,100077.67
2023-02-17T21:54:09.933Z,100076.73
2023-02-17T21:56:38.374Z,100071.99
2023-02-17T21:59:06.694Z,100077.50
2023-02-17T22:01:34.753Z,100075.08
2023-02-17T22:04:03.204Z,100075.99
2023-02-17T22:06:33.470Z,100074.01
2023-02-17T22:09:01.488Z,100069.39
2023-02-17T22:11:31.265Z,100064.45
2023-02-17T22:14:01.357Z,100068.83
2023-02-17T22:16:30.993Z,100067.16
2023-02-17T22:18:59.244Z,100066.95
2023-02-17T22:21:27.491Z,100066.91
2023-02-17T22:23:57.572Z,100065.46
2023-02-17T22:26:25.917Z,100054.84
2023-02-17T22:28:54.338Z,100049.02
2023-02-17T22:31:24.279Z,100032.05
2023-02-17T22:33:52.708Z,100051.15
2023-02-17T22:36:22.763Z,100045.77
2023-02-17T22:38:51.246Z,100048.14
2023-02-17T22:41:22.077Z,100052.05
2023-02-17T22:43:50.452Z,100062.02
2023-02-17T22:46:19.376Z,100063.70
2023-02-17T22:48:48.719Z,100067.81
2023-02-17T22:51:18.740Z,100070.23
2023-02-17T22:53:46.882Z,100061.19
2023-02-17T22:56:15.327Z,100047.66
2023-02-17T22:58:43.354Z,100059.52
2023-02-17T23:01:16.221Z,100062.15
2023-02-17T23:03:47.632Z,100059.16
2023-02-17T23:06:20.602Z,100067.63
2023-02-17T23:08:49.036Z,100068.27
2023-02-17T23:11:39.646Z,100074.48
2023-02-17T23:14:08.052Z,100068.02
2023-02-17T23:16:36.816Z,100071.61
2023-02-17T23:19:08.963Z,100078.48
2023-02-17T23:21:37.380Z,100087.19
2023-02-17T23:24:06.890Z,100087.43
2023-02-17T23:26:35.576Z,100098.23
2023-02-17T23:29:04.055Z,100086.95
2023-02-17T23:31:32.194Z,100081.00
2023-02-17T23:34:00.487Z,100086.98
2023-02-17T23:36:28.630Z,100091.31
2023-02-17T23:39:00.356Z,100076.40
2023-02-17T23:41:28.970Z,100082.04
2023-02-17T23:43:56.994Z,100087.92
2023-02-17T23:46:25.234Z,100091.76
2023-02-17T23:48:53.307Z,100091.55
2023-02-17T23:51:21.648Z,100090.91
2023-02-17T23:53:49.672Z,100110.66
2023-02-17T23:56:30.552Z,100112.88
2023-02-17T23:58:58.879Z,100108.71
